Time;durP1;ratioP1;P1;durP2;ratioP2;P2;SDS_P1;SDS_P2;PMS_P1;PMS_P2;Temp;Humidity;BMP_temperature;BMP_pressure;BME280_temperature;BME280_humidity;BME280_pressure;Samples;Min_cycle;Max_cycle;Signal;HPM_P1;HPM_P2
2022/04/27 00:00:51;;;;;;;13.47;8.80;;;6.90;70.70;;;;;;4962369;28;45957;-64
2022/04/27 00:03:17;;;;;;;11.53;8.37;;;6.90;70.50;;;;;;4946047;28;46390;-64
2022/04/27 00:05:43;;;;;;;10.73;8.17;;;7.00;70.70;;;;;;4961966;28;46319;-65
2022/04/27 00:08:09;;;;;;;13.13;9.53;;;7.00;70.80;;;;;;4962632;28;46418;-64
2022/04/27 00:10:34;;;;;;;13.40;9.73;;;7.00;70.80;;;;;;4962575;28;46422;-64
2022/04/27 00:13:00;;;;;;;12.87;8.87;;;7.00;70.80;;;;;;4963356;28;46376;-65
2022/04/27 00:15:28;;;;;;;17.80;8.50;;;7.00;70.90;;;;;;4963277;28;46426;-64
2022/04/27 00:17:54;;;;;;;13.17;8.90;;;7.00;71.00;;;;;;4962310;28;46446;-64
2022/04/27 00:20:19;;;;;;;13.40;9.37;;;7.10;71.10;;;;;;4961846;28;46366;-64
2022/04/27 00:22:45;;;;;;;11.70;8.33;;;7.10;71.00;;;;;;4961460;28;46417;-65
2022/04/27 00:25:14;;;;;;;12.53;8.73;;;7.20;70.90;;;;;;4959655;28;45730;-64
2022/04/27 00:27:40;;;;;;;14.83;9.60;;;7.20;70.80;;;;;;4962902;28;46337;-65
2022/04/27 00:30:06;;;;;;;12.10;9.10;;;7.20;70.50;;;;;;4961397;28;46392;-64
2022/04/27 00:32:32;;;;;;;12.73;9.23;;;7.30;70.80;;;;;;4962056;28;48633;-65
2022/04/27 00:34:57;;;;;;;12.87;9.07;;;7.30;70.50;;;;;;4962434;28;46433;-66
2022/04/27 00:37:23;;;;;;;16.47;9.10;;;7.40;70.50;;;;;;4960062;28;46311;-66
2022/04/27 00:39:49;;;;;;;14.60;10.00;;;7.40;70.60;;;;;;4960234;28;46662;-65
2022/04/27 00:42:21;;;;;;;16.03;10.10;;;7.50;70.40;;;;;;4956526;28;46309;-65
2022/04/27 00:44:48;;;;;;;15.20;10.03;;;7.50;70.30;;;;;;4958449;28;46512;-66
2022/04/27 00:47:15;;;;;;;14.00;9.90;;;7.60;70.30;;;;;;4958591;28;46454;-65
2022/04/27 00:49:44;;;;;;;19.30;12.37;;;7.60;70.20;;;;;;4960994;28;46360;-65
2022/04/27 00:52:12;;;;;;;17.33;10.53;;;7.60;70.20;;;;;;4958736;28;48153;-66
2022/04/27 00:54:42;;;;;;;12.50;9.90;;;7.70;70.40;;;;;;4935180;28;290570;-66
2022/04/27 00:57:09;;;;;;;16.60;11.87;;;7.70;70.40;;;;;;4958115;28;46379;-65
2022/04/27 00:59:35;;;;;;;14.60;10.43;;;7.70;70.30;;;;;;4959430;28;46539;-66
2022/04/27 01:02:02;;;;;;;18.80;11.43;;;7.70;70.20;;;;;;4962284;28;47683;-66
2022/04/27 01:04:28;;;;;;;14.70;10.23;;;7.70;70.50;;;;;;4962161;28;45837;-65
2022/04/27 01:06:54;;;;;;;17.10;10.60;;;7.70;70.70;;;;;;4961645;28;46365;-66
2022/04/27 01:09:23;;;;;;;15.47;10.53;;;7.70;70.80;;;;;;4960641;28;46551;-66
2022/04/27 01:11:48;;;;;;;15.93;10.90;;;7.60;72.00;;;;;;4961409;28;46534;-65
2022/04/27 01:14:14;;;;;;;15.30;11.13;;;7.60;71.00;;;;;;4961835;28;46259;-65
2022/04/27 01:16:40;;;;;;;19.70;12.97;;;7.70;71.00;;;;;;4960620;28;46576;-64
2022/04/27 01:19:05;;;;;;;16.10;12.00;;;7.70;71.00;;;;;;4961502;28;46452;-64
2022/04/27 01:21:33;;;;;;;17.83;11.93;;;7.70;71.00;;;;;;4961876;28;48143;-64
2022/04/27 01:23:59;;;;;;;19.80;12.33;;;7.70;71.00;;;;;;4961086;28;46476;-64
2022/04/27 01:26:24;;;;;;;18.03;12.93;;;7.80;71.10;;;;;;4962864;28;46436;-64
2022/04/27 01:28:50;;;;;;;15.50;11.87;;;7.80;72.10;;;;;;4961429;28;46493;-64
2022/04/27 01:31:16;;;;;;;20.43;12.57;;;7.80;70.80;;;;;;4961410;28;48674;-65
2022/04/27 01:33:42;;;;;;;25.00;12.77;;;7.90;70.90;;;;;;4961673;28;46442;-65
2022/04/27 01:36:10;;;;;;;17.33;12.33;;;7.90;71.00;;;;;;4961288;28;46584;-65
2022/04/27 01:38:37;;;;;;;19.40;13.23;;;7.90;71.10;;;;;;4961152;28;46309;-65
2022/04/27 01:41:03;;;;;;;18.67;12.97;;;7.90;71.10;;;;;;4960334;28;48054;-65
2022/04/27 01:43:29;;;;;;;19.07;12.53;;;7.90;71.10;;;;;;4960022;28;46616;-65
2022/04/27 01:45:55;;;;;;;18.57;12.30;;;8.00;71.20;;;;;;4960909;28;45766;-65
2022/04/27 01:48:22;;;;;;;24.90;13.03;;;8.00;71.10;;;;;;4960967;28;46545;-66
2022/04/27 01:50:48;;;;;;;19.93;13.87;;;8.10;71.00;;;;;;4960772;28;47767;-65
2022/04/27 01:55:58;;;;;;;18.13;12.33;;;8.10;70.80;;;;;;4962637;28;46395;-65
2022/04/27 01:58:24;;;;;;;21.53;13.13;;;8.10;70.80;;;;;;4960680;28;46289;-65
2022/04/27 02:00:51;;;;;;;22.47;13.47;;;8.10;70.90;;;;;;4955373;28;47310;-64
2022/04/27 02:03:18;;;;;;;19.37;13.03;;;8.10;71.00;;;;;;4959457;28;46350;-65
2022/04/27 02:05:48;;;;;;;19.37;12.70;;;8.10;71.10;;;;;;4959179;28;46407;-65
2022/04/27 02:08:14;;;;;;;21.90;13.00;;;8.10;71.10;;;;;;4955075;28;46520;-65
2022/04/27 02:10:40;;;;;;;19.80;14.23;;;8.10;71.20;;;;;;4954565;28;46257;-66
2022/04/27 02:13:07;;;;;;;19.57;13.80;;;8.10;71.10;;;;;;4958527;28;46428;-66
2022/04/27 02:15:34;;;;;;;19.63;13.20;;;8.10;71.20;;;;;;4954470;28;46278;-65
2022/04/27 02:18:00;;;;;;;22.23;14.30;;;8.10;71.30;;;;;;4956341;28;46102;-65
2022/04/27 02:20:26;;;;;;;19.10;12.80;;;8.10;71.40;;;;;;4958247;28;47735;-65
2022/04/27 02:22:52;;;;;;;20.20;13.40;;;8.10;71.50;;;;;;4952802;28;46376;-66
2022/04/27 02:25:19;;;;;;;25.80;14.70;;;8.00;71.50;;;;;;4956167;28;47575;-66
2022/04/27 02:27:45;;;;;;;26.70;17.40;;;8.00;71.50;;;;;;4957183;28;46710;-66
2022/04/27 02:30:12;;;;;;;32.60;21.57;;;8.10;71.40;;;;;;4954565;28;46379;-66
2022/04/27 02:32:38;;;;;;;29.33;19.83;;;8.00;71.40;;;;;;4958589;28;46457;-65
2022/04/27 02:35:06;;;;;;;25.13;16.50;;;8.00;71.50;;;;;;4956294;28;46434;-63
2022/04/27 02:37:32;;;;;;;19.13;13.00;;;7.90;71.70;;;;;;4958093;28;46452;-65
2022/04/27 02:39:58;;;;;;;19.40;12.90;;;7.80;71.90;;;;;;4953844;28;48777;-65
2022/04/27 02:42:25;;;;;;;17.70;12.67;;;7.80;72.30;;;;;;4960560;28;46588;-66
2022/04/27 02:44:50;;;;;;;20.80;12.80;;;7.60;72.60;;;;;;4960322;28;46393;-65
2022/04/27 02:47:18;;;;;;;18.83;12.03;;;7.50;73.00;;;;;;4960228;28;46539;-65
2022/04/27 02:52:28;;;;;;;23.10;12.73;;;7.40;73.40;;;;;;4959995;28;46296;-65
2022/04/27 02:54:54;;;;;;;21.40;13.50;;;7.30;73.40;;;;;;4956377;28;45785;-66
2022/04/27 02:57:21;;;;;;;22.23;14.37;;;7.30;73.50;;;;;;4960286;28;46454;-64
2022/04/27 02:59:47;;;;;;;23.13;13.97;;;7.30;73.40;;;;;;4957504;28;47894;-65
2022/04/27 03:02:12;;;;;;;24.00;15.33;;;7.30;73.20;;;;;;4960362;28;46640;-64
2022/04/27 03:04:38;;;;;;;20.03;14.03;;;7.40;73.00;;;;;;4960329;28;46391;-64
2022/04/27 03:07:04;;;;;;;23.93;15.83;;;7.40;72.70;;;;;;4960371;28;46468;-64
2022/04/27 03:09:30;;;;;;;22.57;14.30;;;7.50;72.30;;;;;;4959985;28;48022;-64
2022/04/27 03:11:56;;;;;;;18.17;12.60;;;7.50;72.00;;;;;;4961086;28;45858;-64
2022/04/27 03:14:22;;;;;;;20.30;13.00;;;7.50;72.00;;;;;;4960447;28;46322;-64
2022/04/27 03:16:48;;;;;;;20.20;13.53;;;7.40;72.30;;;;;;4961269;28;46499;-65
2022/04/27 03:19:14;;;;;;;26.80;16.03;;;7.20;72.80;;;;;;4958727;28;48182;-64
2022/04/27 03:21:41;;;;;;;26.73;15.87;;;7.10;73.50;;;;;;4961685;28;46395;-64
2022/04/27 03:24:06;;;;;;;20.57;14.10;;;6.90;74.20;;;;;;4962129;28;46432;-64
2022/04/27 03:26:32;;;;;;;17.80;11.93;;;6.70;75.10;;;;;;4961740;28;46599;-65
2022/04/27 03:28:58;;;;;;;20.20;12.83;;;6.50;75.00;;;;;;4959739;28;47823;-64
2022/04/27 03:31:25;;;;;;;22.60;12.70;;;6.30;75.00;;;;;;4960855;28;46631;-64
2022/04/27 03:33:51;;;;;;;23.77;15.20;;;6.10;75.70;;;;;;4961257;28;46358;-65
2022/04/27 03:36:17;;;;;;;23.17;14.97;;;6.00;75.90;;;;;;4959581;28;46588;-64
2022/04/27 03:38:43;;;;;;;27.50;16.87;;;6.00;76.00;;;;;;4959234;28;48824;-64
2022/04/27 03:41:10;;;;;;;28.70;16.40;;;5.90;76.10;;;;;;4960306;28;46436;-64
2022/04/27 03:43:36;;;;;;;23.50;14.63;;;5.90;76.20;;;;;;4960034;28;46393;-64
2022/04/27 03:46:02;;;;;;;27.67;15.50;;;5.80;76.10;;;;;;4961453;28;46360;-65
2022/04/27 03:48:28;;;;;;;24.57;14.63;;;5.80;75.90;;;;;;4959143;28;47964;-64
2022/04/27 03:50:54;;;;;;;26.27;14.43;;;5.80;76.00;;;;;;4959705;28;46273;-64
2022/04/27 03:53:19;;;;;;;27.23;16.20;;;5.70;75.90;;;;;;4959324;28;46416;-64
2022/04/27 03:55:46;;;;;;;25.03;15.37;;;5.70;75.80;;;;;;4959048;28;46412;-64
2022/04/27 03:58:12;;;;;;;25.13;15.03;;;5.60;75.70;;;;;;4959349;28;46650;-63
2022/04/27 04:00:37;;;;;;;23.67;14.00;;;5.60;75.70;;;;;;4959610;28;46536;-63
2022/04/27 04:03:05;;;;;;;22.20;14.87;;;5.50;75.70;;;;;;4959869;28;46474;-64
2022/04/27 04:05:31;;;;;;;24.00;13.50;;;5.50;75.80;;;;;;4955364;28;46309;-64
2022/04/27 04:07:57;;;;;;;23.60;14.73;;;5.40;75.80;;;;;;4959666;28;47472;-63
2022/04/27 04:10:23;;;;;;;25.77;15.17;;;5.40;75.90;;;;;;4959118;28;46345;-64
2022/04/27 04:12:49;;;;;;;28.13;15.33;;;5.30;76.00;;;;;;4959582;28;46362;-65
2022/04/27 04:15:15;;;;;;;27.37;15.77;;;5.30;76.10;;;;;;4960017;28;46380;-65
2022/04/27 04:17:44;;;;;;;25.50;15.50;;;5.30;76.10;;;;;;4959378;28;48919;-65
2022/04/27 04:20:13;;;;;;;27.40;16.03;;;5.30;75.90;;;;;;4958993;28;46450;-65
2022/04/27 04:22:39;;;;;;;24.77;15.43;;;5.30;75.90;;;;;;4961019;28;46429;-65
2022/04/27 04:30:33;;;;;;;33.57;19.00;;;5.40;75.60;;;;;;4964585;28;45769;-64
2022/04/27 04:33:02;;;;;;;29.07;15.77;;;5.50;75.40;;;;;;4962956;28;46401;-64
2022/04/27 04:35:28;;;;;;;22.70;15.03;;;5.50;75.30;;;;;;4961928;28;46422;-64
2022/04/27 04:37:54;;;;;;;26.70;15.07;;;5.60;75.70;;;;;;4962385;28;47730;-65
2022/04/27 04:40:20;;;;;;;25.83;14.13;;;5.60;75.60;;;;;;4945985;28;45785;-65
2022/04/27 04:42:46;;;;;;;20.47;12.30;;;5.70;75.70;;;;;;4961439;28;46282;-63
2022/04/27 04:45:12;;;;;;;18.30;12.10;;;5.70;75.70;;;;;;4963026;28;46621;-65
2022/04/27 04:47:37;;;;;;;19.50;13.20;;;5.80;75.60;;;;;;4945983;28;47950;-65
2022/04/27 04:50:04;;;;;;;17.27;11.53;;;5.90;75.50;;;;;;4958940;28;46613;-63
2022/04/27 04:52:30;;;;;;;18.80;12.03;;;6.00;75.10;;;;;;4961126;28;46521;-63
2022/04/27 04:54:56;;;;;;;20.57;13.20;;;6.10;74.60;;;;;;4959398;28;46357;-65
2022/04/27 04:57:21;;;;;;;16.73;11.10;;;6.40;74.80;;;;;;4961854;28;46364;-64
2022/04/27 04:59:47;;;;;;;12.67;8.87;;;6.80;74.00;;;;;;4959007;28;46468;-65
2022/04/27 05:02:13;;;;;;;13.83;9.33;;;8.00;73.70;;;;;;4962773;28;46535;-64
2022/04/27 05:04:45;;;;;;;18.40;10.37;;;8.50;73.20;;;;;;4961457;28;46404;-63
2022/04/27 05:07:11;;;;;;;12.63;9.00;;;8.70;72.20;;;;;;4963226;28;47334;-64
2022/04/27 05:09:37;;;;;;;15.70;10.60;;;8.80;71.50;;;;;;4961243;28;46944;-64
2022/04/27 05:12:04;;;;;;;15.03;10.33;;;8.90;70.90;;;;;;4946452;28;46389;-65
2022/04/27 05:14:30;;;;;;;14.67;10.03;;;8.90;70.60;;;;;;4962277;28;46470;-64
2022/04/27 05:16:56;;;;;;;14.53;9.97;;;8.90;70.50;;;;;;4961395;28;48068;-64
2022/04/27 05:19:22;;;;;;;14.93;10.40;;;8.90;70.20;;;;;;4961210;28;46388;-65
2022/04/27 05:21:49;;;;;;;20.40;10.80;;;8.90;70.00;;;;;;4962066;28;46380;-64
2022/04/27 05:24:15;;;;;;;16.30;11.67;;;9.00;69.90;;;;;;4961802;28;46340;-65
2022/04/27 05:26:44;;;;;;;15.93;11.60;;;9.00;69.70;;;;;;4961518;28;47227;-64
2022/04/27 05:32:04;;;;;;;18.30;11.50;;;9.20;69.10;;;;;;4963809;28;46439;-64
2022/04/27 05:34:30;;;;;;;14.13;11.10;;;9.30;68.90;;;;;;4959795;28;46435;-64
2022/04/27 05:36:59;;;;;;;15.97;10.70;;;9.40;68.80;;;;;;4960927;28;48674;-64
2022/04/27 05:39:25;;;;;;;16.17;11.43;;;9.40;68.70;;;;;;4961111;28;46487;-64
2022/04/27 05:41:51;;;;;;;16.90;11.70;;;9.50;68.70;;;;;;4962307;28;46582;-65
2022/04/27 05:44:22;;;;;;;19.77;12.73;;;9.50;68.50;;;;;;4962282;28;46518;-65
2022/04/27 05:46:49;;;;;;;17.50;11.20;;;9.60;68.70;;;;;;4961524;28;46573;-65
2022/04/27 05:49:15;;;;;;;20.30;12.37;;;9.60;68.80;;;;;;4960637;28;46325;-64
2022/04/27 05:51:41;;;;;;;19.37;11.43;;;9.70;68.90;;;;;;4959586;28;46507;-64
2022/04/27 05:54:06;;;;;;;18.07;11.93;;;9.80;69.00;;;;;;4961758;28;46782;-64
2022/04/27 05:56:32;;;;;;;15.73;9.57;;;10.30;67.60;;;;;;4960466;28;46460;-64
2022/04/27 05:58:59;;;;;;;16.53;9.43;;;11.70;66.50;;;;;;4959914;28;46546;-64
2022/04/27 06:01:24;;;;;;;13.73;9.37;;;13.30;64.00;;;;;;4960953;28;46335;-65
2022/04/27 06:03:50;;;;;;;14.60;8.83;;;14.50;60.40;;;;;;4961093;28;46355;-64
2022/04/27 06:06:16;;;;;;;16.10;9.57;;;15.20;57.70;;;;;;4956019;28;48521;-64
2022/04/27 06:08:42;;;;;;;13.40;9.27;;;15.40;56.60;;;;;;4960605;28;46684;-65
2022/04/27 06:11:08;;;;;;;14.00;9.30;;;15.80;57.00;;;;;;4962958;28;46432;-65
2022/04/27 06:13:34;;;;;;;13.60;8.77;;;16.40;57.00;;;;;;4960940;28;46440;-65
2022/04/27 06:15:59;;;;;;;11.57;9.17;;;17.10;55.00;;;;;;4958182;28;47804;-65
2022/04/27 06:18:25;;;;;;;13.80;8.37;;;17.70;53.30;;;;;;4958696;28;46799;-65
2022/04/27 06:20:53;;;;;;;13.97;9.33;;;18.20;50.80;;;;;;4960856;28;46389;-65
2022/04/27 06:23:19;;;;;;;12.53;8.80;;;18.80;48.90;;;;;;4961318;28;46592;-65
2022/04/27 06:25:49;;;;;;;12.30;9.20;;;18.90;47.20;;;;;;4959376;28;48102;-65
2022/04/27 06:28:18;;;;;;;21.37;9.80;;;18.80;46.60;;;;;;4959416;28;46464;-65
2022/04/27 06:30:44;;;;;;;13.30;9.73;;;17.60;50.10;;;;;;4942675;28;46440;-65
2022/04/27 06:33:10;;;;;;;15.00;10.30;;;16.50;52.70;;;;;;4958588;28;45996;-65
2022/04/27 06:35:36;;;;;;;15.63;10.63;;;15.70;53.80;;;;;;4956853;28;46460;-65
2022/04/27 06:38:01;;;;;;;13.93;9.30;;;15.70;52.00;;;;;;4955963;28;46373;-65
2022/04/27 06:40:28;;;;;;;12.07;9.40;;;17.00;46.10;;;;;;4955627;28;46567;-65
2022/04/27 06:42:56;;;;;;;12.00;8.37;;;18.30;41.80;;;;;;4959104;28;46370;-65
2022/04/27 06:45:24;;;;;;;11.60;8.57;;;18.70;40.30;;;;;;4956905;28;48592;-64
2022/04/27 06:47:49;;;;;;;10.83;7.57;;;17.80;41.60;;;;;;4956819;28;46784;-64
2022/04/27 06:50:16;;;;;;;10.90;8.40;;;16.20;45.30;;;;;;4959352;28;46450;-64
2022/04/27 06:52:48;;;;;;;15.60;8.37;;;15.50;46.60;;;;;;4960134;28;45953;-64
2022/04/27 06:55:15;;;;;;;12.00;8.53;;;14.80;47.80;;;;;;4958724;28;47358;-64
2022/04/27 06:57:41;;;;;;;10.17;7.50;;;14.50;48.60;;;;;;4958786;28;46468;-64
2022/04/27 07:00:12;;;;;;;11.20;7.60;;;14.10;50.00;;;;;;4957429;28;46363;-64
2022/04/27 07:02:38;;;;;;;11.23;8.50;;;13.90;50.00;;;;;;4955525;28;46533;-66
2022/04/27 07:05:06;;;;;;;14.40;9.13;;;13.70;50.10;;;;;;4957190;28;48891;-65
2022/04/27 07:07:33;;;;;;;11.07;7.80;;;13.60;50.40;;;;;;4953926;28;46140;-63
2022/04/27 07:09:59;;;;;;;9.90;7.23;;;13.40;50.80;;;;;;4956195;28;46525;-64
2022/04/27 07:12:25;;;;;;;11.00;6.97;;;13.40;50.90;;;;;;4959895;28;45895;-65
2022/04/27 07:14:51;;;;;;;8.87;6.20;;;13.50;50.90;;;;;;4958380;28;48160;-65
2022/04/27 07:17:18;;;;;;;9.67;5.80;;;13.60;50.40;;;;;;4959883;28;46478;-65
2022/04/27 07:19:44;;;;;;;8.43;6.07;;;13.60;49.60;;;;;;4958027;28;46405;-65
2022/04/27 07:22:10;;;;;;;12.43;6.40;;;13.40;50.00;;;;;;4961035;28;46549;-63
2022/04/27 07:24:37;;;;;;;7.03;5.03;;;13.20;50.10;;;;;;4957393;28;46652;-65
2022/04/27 07:27:04;;;;;;;9.23;5.73;;;12.90;50.60;;;;;;4956467;28;45809;-65
2022/04/27 07:29:29;;;;;;;8.57;5.90;;;13.20;50.70;;;;;;4959516;28;46424;-65
2022/04/27 07:31:55;;;;;;;11.80;7.83;;;13.70;49.50;;;;;;4959333;28;46578;-65
2022/04/27 07:34:21;;;;;;;9.13;6.27;;;14.00;48.80;;;;;;4959244;28;47845;-66
2022/04/27 07:36:47;;;;;;;10.30;7.70;;;14.30;48.10;;;;;;4944214;28;46464;-63
2022/04/27 07:39:13;;;;;;;10.33;7.17;;;14.20;48.00;;;;;;4951902;28;46487;-65
2022/04/27 07:41:39;;;;;;;8.67;6.03;;;14.40;47.80;;;;;;4953254;28;46574;-65
2022/04/27 07:44:06;;;;;;;9.63;7.20;;;14.50;47.50;;;;;;4953069;28;49044;-64
2022/04/27 07:46:32;;;;;;;9.50;7.13;;;14.70;47.30;;;;;;4953659;28;46441;-65
2022/04/27 07:48:58;;;;;;;9.60;6.93;;;14.70;47.20;;;;;;4951499;28;46448;-64
2022/04/27 07:51:24;;;;;;;10.00;6.20;;;14.60;47.40;;;;;;4953114;28;46481;-65
2022/04/27 07:53:49;;;;;;;9.80;6.67;;;14.60;47.50;;;;;;4958271;28;47893;-64
2022/04/27 07:56:15;;;;;;;10.80;6.80;;;14.70;47.20;;;;;;4958684;28;46417;-65
2022/04/27 07:58:41;;;;;;;9.80;7.17;;;14.90;46.80;;;;;;4961689;28;46382;-64
2022/04/27 08:01:06;;;;;;;8.93;6.10;;;14.80;46.50;;;;;;4961767;28;46505;-65
2022/04/27 08:03:32;;;;;;;11.53;6.40;;;14.90;46.70;;;;;;4962523;28;47776;-65
2022/04/27 08:06:00;;;;;;;10.20;6.60;;;15.10;46.30;;;;;;4961219;28;46213;-63
2022/04/27 08:08:26;;;;;;;7.13;5.33;;;15.30;46.00;;;;;;4961508;28;45889;-63
2022/04/27 08:10:51;;;;;;;7.17;5.27;;;15.60;45.20;;;;;;4961736;28;46361;-65
2022/04/27 08:13:17;;;;;;;8.37;5.87;;;15.50;44.30;;;;;;4961990;28;47917;-64
2022/04/27 08:15:44;;;;;;;9.23;6.20;;;15.70;45.40;;;;;;4963452;28;45831;-65
2022/04/27 08:18:10;;;;;;;8.00;5.93;;;16.30;43.80;;;;;;4963927;28;46477;-65
2022/04/27 08:23:21;;;;;;;8.53;5.20;;;16.90;41.70;;;;;;4962908;28;46687;-64
2022/04/27 08:25:47;;;;;;;9.53;6.57;;;16.80;41.60;;;;;;4957188;28;46717;-64
2022/04/27 08:28:15;;;;;;;8.30;6.03;;;16.30;42.20;;;;;;4960070;28;46439;-65
2022/04/27 08:30:43;;;;;;;7.50;6.00;;;15.80;44.50;;;;;;4960574;28;46404;-65
2022/04/27 08:33:10;;;;;;;8.30;6.20;;;15.70;43.60;;;;;;4960563;28;47893;-66
2022/04/27 08:35:38;;;;;;;9.00;5.50;;;15.60;43.50;;;;;;4961084;28;46360;-64
2022/04/27 08:38:06;;;;;;;9.70;6.50;;;15.30;43.30;;;;;;4961992;28;46465;-65
2022/04/27 08:40:36;;;;;;;8.03;6.20;;;14.90;42.90;;;;;;4961916;28;46458;-64
2022/04/27 08:43:02;;;;;;;7.17;5.30;;;14.40;44.50;;;;;;4961825;28;48154;-64
2022/04/27 08:45:28;;;;;;;7.70;5.87;;;14.20;45.50;;;;;;4961777;28;46676;-64
2022/04/27 08:47:54;;;;;;;7.13;4.97;;;13.90;46.10;;;;;;4962815;28;46488;-65
2022/04/27 08:50:21;;;;;;;7.23;4.83;;;13.60;46.10;;;;;;4960176;28;46507;-65
2022/04/27 08:52:49;;;;;;;8.00;5.07;;;13.10;46.20;;;;;;4961858;28;47965;-65
2022/04/27 08:55:15;;;;;;;6.20;4.70;;;13.20;46.40;;;;;;4961637;28;46668;-64
2022/04/27 08:57:43;;;;;;;5.57;3.93;;;13.30;46.30;;;;;;4961285;28;46478;-64
2022/04/27 09:00:11;;;;;;;5.50;3.80;;;13.20;46.20;;;;;;4961952;28;46597;-65
2022/04/27 09:02:37;;;;;;;7.67;5.30;;;13.10;45.70;;;;;;4962531;28;47348;-64
2022/04/27 09:05:10;;;;;;;6.93;5.00;;;13.20;45.10;;;;;;4961232;28;46330;-65
2022/04/27 09:07:39;;;;;;;9.60;5.50;;;13.10;45.10;;;;;;4961003;28;46422;-64
2022/04/27 09:10:10;;;;;;;10.20;6.60;;;13.10;45.20;;;;;;4959140;28;46464;-65
2022/04/27 09:12:50;;;;;;;10.70;7.30;;;13.00;45.70;;;;;;4961655;28;46492;-64
2022/04/27 09:15:19;;;;;;;8.90;6.50;;;13.00;46.00;;;;;;4959881;28;46364;-65
2022/04/27 09:20:46;;;;;;;8.07;5.37;;;13.20;45.80;;;;;;4942616;28;46422;-66
2022/04/27 09:23:25;;;;;;;6.43;4.63;;;13.30;45.70;;;;;;4957986;28;47195;-65
2022/04/27 09:25:53;;;;;;;9.83;4.10;;;13.30;45.00;;;;;;4956937;28;46564;-66
2022/04/27 09:28:23;;;;;;;6.60;4.43;;;13.40;44.40;;;;;;4958958;28;46616;-65
2022/04/27 09:30:49;;;;;;;8.27;4.77;;;13.30;43.70;;;;;;4953684;28;46527;-67
2022/04/27 09:33:36;;;;;;;6.50;4.43;;;13.20;43.80;;;;;;4957784;28;47737;-65
2022/04/27 09:36:19;;;;;;;8.30;4.60;;;13.40;43.80;;;;;;4958363;28;46497;-64
2022/04/27 09:38:45;;;;;;;10.10;5.90;;;13.30;43.90;;;;;;4960694;28;46509;-65
2022/04/27 09:41:10;;;;;;;8.87;6.53;;;13.30;43.90;;;;;;4962631;28;46091;-65
2022/04/27 09:43:47;;;;;;;11.27;6.40;;;13.40;43.90;;;;;;4960598;28;47826;-66
2022/04/27 09:46:25;;;;;;;9.67;5.87;;;13.50;44.00;;;;;;4958518;28;46399;-65
2022/04/27 09:49:11;;;;;;;7.00;5.13;;;13.50;44.00;;;;;;4959079;28;46432;-65
2022/04/27 09:51:52;;;;;;;9.50;6.43;;;13.50;44.20;;;;;;4960539;28;46655;-65
2022/04/27 09:54:23;;;;;;;8.80;5.60;;;13.70;44.30;;;;;;4955843;28;47987;-66
2022/04/27 09:57:00;;;;;;;7.03;5.17;;;13.80;43.20;;;;;;4957738;28;46505;-65
2022/04/27 09:59:29;;;;;;;7.27;5.40;;;14.00;43.10;;;;;;4954554;28;46524;-65
2022/04/27 10:02:04;;;;;;;6.83;4.80;;;14.40;42.50;;;;;;4953873;28;46604;-64
2022/04/27 10:04:29;;;;;;;7.03;5.23;;;14.90;42.30;;;;;;4959068;28;46450;-64
2022/04/27 10:07:00;;;;;;;7.93;5.43;;;14.60;42.20;;;;;;4959411;28;46467;-65
2022/04/27 10:09:27;;;;;;;7.10;5.30;;;14.50;42.60;;;;;;4955728;28;46467;-65
2022/04/27 10:11:55;;;;;;;7.53;5.03;;;14.50;42.60;;;;;;4960166;28;46407;-65
2022/04/27 10:14:28;;;;;;;6.83;5.10;;;14.40;42.50;;;;;;4960271;28;48754;-66
2022/04/27 10:16:54;;;;;;;6.63;5.10;;;14.50;42.50;;;;;;4957582;28;46539;-66
2022/04/27 10:19:24;;;;;;;6.07;4.60;;;14.20;42.30;;;;;;4959530;28;46368;-66
2022/04/27 10:21:57;;;;;;;7.93;5.70;;;14.40;42.50;;;;;;4961980;28;46380;-66
2022/04/27 10:24:38;;;;;;;7.80;6.10;;;14.60;41.90;;;;;;4955733;28;48763;-65
2022/04/27 10:27:19;;;;;;;7.57;5.60;;;14.80;41.00;;;;;;4959056;28;46335;-66
2022/04/27 10:29:58;;;;;;;8.87;6.10;;;15.10;40.90;;;;;;4957843;28;46402;-65
2022/04/27 10:32:46;;;;;;;6.87;4.53;;;15.20;40.70;;;;;;4960435;28;46620;-65
2022/04/27 10:35:11;;;;;;;7.80;6.00;;;15.60;40.30;;;;;;4957344;28;48731;-65
2022/04/27 10:38:05;;;;;;;6.97;5.30;;;15.70;40.00;;;;;;4959018;28;46289;-65
2022/04/27 10:40:34;;;;;;;8.90;4.90;;;16.00;39.30;;;;;;4958760;28;46459;-68
2022/04/27 10:43:03;;;;;;;8.17;5.23;;;16.20;38.70;;;;;;4959834;28;46392;-65
2022/04/27 10:45:29;;;;;;;8.80;5.50;;;16.50;37.70;;;;;;4959306;28;47812;-65
2022/04/27 10:47:55;;;;;;;10.27;6.60;;;16.80;37.80;;;;;;4959274;28;46570;-64
2022/04/27 10:50:28;;;;;;;7.27;5.27;;;16.90;37.50;;;;;;4958089;28;46370;-65
2022/04/27 10:52:55;;;;;;;5.70;4.23;;;17.10;37.30;;;;;;4959823;28;46368;-66
2022/04/27 10:55:43;;;;;;;6.00;4.37;;;17.20;36.60;;;;;;4958966;28;47941;-65
2022/04/27 10:58:17;;;;;;;6.30;4.57;;;16.60;34.90;;;;;;4959253;28;46786;-64
2022/04/27 11:01:03;;;;;;;8.10;4.70;;;16.50;35.90;;;;;;4957374;28;46647;-65
2022/04/27 11:03:38;;;;;;;7.63;5.70;;;16.50;36.30;;;;;;4945158;28;46804;-65
2022/04/27 11:06:13;;;;;;;8.27;5.90;;;16.40;36.00;;;;;;4957217;28;48840;-65
2022/04/27 11:09:18;;;;;;;7.63;5.77;;;16.30;36.20;;;;;;4955932;28;46440;-66
2022/04/27 11:11:55;;;;;;;8.00;5.53;;;16.10;36.70;;;;;;4957273;28;46576;-65
2022/04/27 11:14:27;;;;;;;8.73;5.50;;;15.90;36.10;;;;;;4959410;28;46465;-66
2022/04/27 11:16:53;;;;;;;8.47;5.50;;;15.50;37.00;;;;;;4958957;28;48194;-65
2022/04/27 11:19:19;;;;;;;6.40;4.77;;;15.40;37.00;;;;;;4958892;28;46419;-64
2022/04/27 11:21:46;;;;;;;6.00;4.43;;;15.50;37.30;;;;;;4959418;28;46867;-65
2022/04/27 11:24:14;;;;;;;5.93;4.20;;;15.40;36.60;;;;;;4956121;28;46675;-65
2022/04/27 11:26:44;;;;;;;7.20;4.20;;;15.40;36.30;;;;;;4956881;28;47961;-64
2022/04/27 11:29:14;;;;;;;8.50;4.83;;;15.40;36.20;;;;;;4955193;28;46409;-65
2022/04/27 11:31:44;;;;;;;6.60;3.70;;;15.30;35.70;;;;;;4959477;28;46359;-64
2022/04/27 11:34:27;;;;;;;7.77;4.20;;;15.50;35.60;;;;;;4962613;28;46380;-65
2022/04/27 11:36:54;;;;;;;5.50;3.90;;;15.80;35.20;;;;;;4961977;28;47881;-66
2022/04/27 11:39:22;;;;;;;5.40;4.03;;;15.80;33.80;;;;;;4961715;28;46406;-62
2022/04/27 11:41:57;;;;;;;6.43;3.80;;;15.50;34.30;;;;;;4963046;28;46705;-65
2022/04/27 11:44:24;;;;;;;7.53;3.73;;;15.60;34.60;;;;;;4962526;28;46710;-66
2022/04/27 11:46:51;;;;;;;5.80;3.10;;;15.60;34.00;;;;;;4962250;28;48670;-64
2022/04/27 11:49:16;;;;;;;4.43;3.40;;;15.60;33.90;;;;;;4959283;28;46283;-65
2022/04/27 11:51:49;;;;;;;8.50;5.50;;;15.70;33.30;;;;;;4957462;28;46457;-65
2022/04/27 11:54:28;;;;;;;8.37;6.13;;;15.50;34.10;;;;;;4963110;28;46350;-65
2022/04/27 11:57:01;;;;;;;7.67;6.10;;;15.30;35.30;;;;;;4964340;28;47865;-65
2022/04/27 11:59:47;;;;;;;8.60;6.40;;;15.10;35.70;;;;;;4964463;28;46340;-65
2022/04/27 12:02:21;;;;;;;12.63;8.93;;;15.10;36.40;;;;;;4965579;28;45984;-65
2022/04/27 12:04:48;;;;;;;10.97;7.80;;;14.80;38.50;;;;;;4959647;28;46546;-65
2022/04/27 12:07:16;;;;;;;12.60;8.80;;;14.50;38.70;;;;;;4963591;28;47412;-65
2022/04/27 12:09:56;;;;;;;15.40;7.10;;;14.10;39.40;;;;;;4969511;28;46581;-65
2022/04/27 12:12:22;;;;;;;10.20;7.03;;;14.10;40.10;;;;;;4969052;28;46591;-64
2022/04/27 12:14:49;;;;;;;9.40;6.90;;;14.10;40.20;;;;;;4970574;28;46434;-64
2022/04/27 12:17:56;;;;;;;8.63;5.90;;;13.90;40.30;;;;;;4968523;28;46362;-65
2022/04/27 12:20:38;;;;;;;9.27;7.43;;;13.90;40.60;;;;;;4890581;29;46423;-65
2022/04/27 12:23:18;;;;;;;9.57;6.73;;;13.90;40.70;;;;;;4957373;28;46356;-64
2022/04/27 12:25:57;;;;;;;9.90;6.10;;;13.80;41.00;;;;;;4967137;28;46421;-65
2022/04/27 12:28:26;;;;;;;9.43;6.53;;;14.00;41.00;;;;;;4967156;28;48226;-64
2022/04/27 12:31:05;;;;;;;9.30;6.50;;;14.00;40.90;;;;;;4965957;28;46705;-64
2022/04/27 12:33:35;;;;;;;6.83;5.17;;;14.00;40.80;;;;;;4962170;28;46401;-65
2022/04/27 12:39:05;;;;;;;8.07;5.20;;;14.30;40.10;;;;;;4960235;28;46727;-65
2022/04/27 12:41:42;;;;;;;8.90;5.60;;;14.30;40.30;;;;;;4954077;28;46373;-65
2022/04/27 12:44:24;;;;;;;7.67;4.80;;;14.20;40.10;;;;;;4960643;28;46468;-65
2022/04/27 12:47:00;;;;;;;7.40;5.30;;;14.50;39.90;;;;;;4959790;28;46721;-65
2022/04/27 12:49:28;;;;;;;6.90;4.97;;;14.60;39.70;;;;;;4960579;28;48952;-64
2022/04/27 12:51:54;;;;;;;7.47;5.70;;;14.60;39.50;;;;;;4960635;28;46381;-66
2022/04/27 12:54:35;;;;;;;7.13;4.87;;;14.60;40.00;;;;;;4961444;28;46596;-64
2022/04/27 12:57:02;;;;;;;7.10;5.00;;;14.80;39.60;;;;;;4961185;28;45933;-65
2022/04/27 12:59:28;;;;;;;6.83;4.83;;;14.90;38.70;;;;;;4962460;28;46511;-66
2022/04/27 13:01:58;;;;;;;6.43;4.97;;;15.00;38.70;;;;;;4961801;28;45927;-65
2022/04/27 13:04:24;;;;;;;6.27;4.87;;;15.10;38.60;;;;;;4962427;28;46471;-65
2022/04/27 13:06:51;;;;;;;9.30;5.30;;;15.10;38.80;;;;;;4962878;28;46499;-64
2022/04/27 13:12:01;;;;;;;8.80;5.70;;;15.50;38.50;;;;;;4958967;28;46324;-64